| time (UTC) | temp F | wind direction | speed MPH | gust MPH | rain 1hr in | rain 24hr in | rain mn in | humidity % | barometer mb |
| 20260510191532 | 83 | 147 | 0.0 | 1.0 | 0.00 | 0.05 | 0.00 | 55 | 1016.3 |
| 20260510190031 | 84 | 193 | 0.0 | 2.0 | 0.00 | 0.05 | 0.00 | 53 | 1016.6 |
| 20260510184529 | 84 | 205 | 1.0 | 3.0 | 0.00 | 0.05 | 0.00 | 51 | 1016.6 |
| 20260510183031 | 84 | 331 | 1.0 | 2.0 | 0.00 | 0.05 | 0.00 | 50 | 1016.8 |
| 20260510181528 | 83 | 48 | 0.0 | 6.0 | 0.00 | 0.05 | 0.00 | 52 | 1016.8 |
| 20260510180026 | 81 | 300 | 1.0 | 6.0 | 0.00 | 0.05 | 0.00 | 54 | 1016.9 |
| 20260510174523 | 81 | 32 | 1.0 | 6.0 | 0.00 | 0.07 | 0.00 | 54 | 1017.0 |
| 20260510173023 | 82 | 26 | 3.0 | 6.0 | 0.00 | 0.07 | 0.00 | 52 | 1017.2 |
| 20260510171519 | 84 | 152 | 0.0 | 4.0 | 0.00 | 0.07 | 0.00 | 54 | 1017.3 |
| 20260510170016 | 81 | 354 | 2.0 | 6.0 | 0.00 | 0.07 | 0.00 | 59 | 1017.4 |
| 20260510164512 | 80 | 347 | 2.0 | 6.0 | 0.00 | 0.22 | 0.00 | 59 | 1017.5 |
| 20260510163010 | 79 | 65 | 2.0 | 6.0 | 0.00 | 0.22 | 0.00 | 61 | 1017.5 |
| 20260510161509 | 79 | 6 | 1.0 | 4.0 | 0.00 | 0.22 | 0.00 | 62 | 1017.6 |
| 20260510160008 | 79 | 25 | 3.0 | 5.0 | 0.00 | 0.22 | 0.00 | 62 | 1017.6 |
| 20260510154506 | 79 | 35 | 2.0 | 5.0 | 0.00 | 0.67 | 0.00 | 62 | 1017.6 |
| 20260510153004 | 78 | 58 | 1.0 | 4.0 | 0.00 | 0.67 | 0.00 | 64 | 1017.7 |
| 20260510151601 | 76 | 23 | 0.0 | 4.0 | 0.00 | 0.67 | 0.00 | 65 | 1017.8 |
| 20260510150059 | 75 | 65 | 1.0 | 4.0 | 0.00 | 0.67 | 0.00 | 66 | 1017.8 |
| 20260510144609 | 75 | 339 | 2.0 | 6.0 | 0.00 | 0.67 | 0.00 | 66 | 1018.1 |
| 20260510143105 | 74 | 324 | 2.0 | 4.0 | 0.00 | 0.67 | 0.00 | 71 | 1018.0 |
| 20260510141547 | 73 | 345 | 1.0 | 4.0 | 0.00 | 0.67 | 0.00 | 73 | 1017.8 |
| 20260510140046 | 72 | 81 | 1.0 | 4.0 | 0.00 | 0.67 | 0.00 | 75 | 1017.7 |
| 20260510134543 | 70 | 49 | 0.0 | 6.0 | 0.00 | 0.68 | 0.00 | 77 | 1017.5 |
| 20260510133034 | 69 | 14 | 2.0 | 4.0 | 0.00 | 0.68 | 0.00 | 78 | 1017.5 |
| 20260510131532 | 68 | 58 | 2.0 | 4.0 | 0.00 | 0.68 | 0.00 | 80 | 1017.5 |
| 20260510130029 | 67 | 22 | 2.0 | 5.0 | 0.00 | 0.68 | 0.00 | 81 | 1017.5 |
| 20260510124604 | 66 | 37 | 0.0 | 4.0 | 0.00 | 0.68 | 0.00 | 81 | 1017.4 |
| 20260510123055 | 65 | 340 | 1.0 | 3.0 | 0.00 | 0.68 | 0.00 | 81 | 1017.2 |
| 20260510121550 | 65 | 68 | 0.0 | 2.0 | 0.00 | 0.68 | 0.00 | 81 | 1016.8 |
| 20260510120049 | 65 | 98 | 0.0 | 0.0 | 0.00 | 0.68 | 0.00 | 81 | 1016.6 |
| 20260510114548 | 64 | 98 | 0.0 | 1.0 | 0.00 | 0.68 | 0.00 | 81 | 1016.5 |
| 20260510113047 | 64 | 27 | 0.0 | 3.0 | 0.00 | 0.68 | 0.00 | 81 | 1016.6 |
| 20260510111553 | 64 | 10 | 0.0 | 2.0 | 0.00 | 0.68 | 0.00 | 81 | 1016.2 |
| 20260510110039 | 64 | 32 | 0.0 | 2.0 | 0.00 | 0.68 | 0.00 | 81 | 1015.8 |
| 20260510104545 | 64 | 29 | 0.0 | 1.0 | 0.00 | 0.69 | 0.00 | 81 | 1015.5 |
| 20260510103038 | 64 | 70 | 1.0 | 3.0 | 0.00 | 0.69 | 0.00 | 81 | 1015.4 |
| 20260510101530 | 65 | 95 | 1.0 | 4.0 | 0.00 | 0.69 | 0.00 | 81 | 1015.3 |
| 20260510100029 | 65 | 75 | 0.0 | 4.0 | 0.00 | 0.69 | 0.00 | 81 | 1015.0 |
| 20260510094531 | 65 | 70 | 0.0 | 2.0 | 0.00 | 0.69 | 0.00 | 81 | 1014.9 |
| 20260510093026 | 65 | 340 | 0.0 | 2.0 | 0.00 | 0.69 | 0.00 | 81 | 1014.9 |
| 20260510091520 | 65 | 356 | 0.0 | 1.0 | 0.00 | 0.69 | 0.00 | 81 | 1014.7 |
| 20260510090056 | 66 | 349 | 0.0 | 3.0 | 0.00 | 0.69 | 0.00 | 81 | 1014.4 |
| 20260510084555 | 66 | 1 | 2.0 | 4.0 | 0.00 | 0.70 | 0.00 | 81 | 1014.1 |
| 20260510083054 | 66 | 65 | 0.0 | 0.0 | 0.00 | 0.70 | 0.00 | 81 | 1014.2 |
| 20260510081609 | 66 | 65 | 0.0 | 0.0 | 0.00 | 0.70 | 0.00 | 81 | 1014.1 |
| 20260510080053 | 66 | 69 | 0.0 | 0.0 | 0.00 | 0.70 | 0.00 | 81 | 1013.9 |
| 20260510074552 | 66 | 69 | 0.0 | 0.0 | 0.00 | 0.71 | 0.00 | 81 | 1013.8 |
| 20260510073048 | 66 | 69 | 0.0 | 0.0 | 0.00 | 0.71 | 0.00 | 81 | 1013.6 |
| 20260510071542 | 67 | 69 | 0.0 | 0.0 | 0.00 | 0.71 | 0.00 | 81 | 1013.8 |
| 20260510070041 | 67 | 69 | 0.0 | 0.0 | 0.00 | 0.71 | 0.00 | 81 | 1014.0 |
| 20260510064540 | 67 | 69 | 0.0 | 0.0 | 0.00 | 0.71 | 0.00 | 81 | 1013.9 |
| 20260510063040 | 67 | 69 | 0.0 | 0.0 | 0.00 | 0.71 | 0.00 | 81 | 1014.0 |
| 20260510061538 | 67 | 69 | 0.0 | 0.0 | 0.00 | 0.71 | 0.00 | 81 | 1014.2 |
| 20260510060048 | 67 | 69 | 0.0 | 0.0 | 0.00 | 0.71 | 0.00 | 81 | 1014.5 |
| 20260510054535 | 67 | 69 | 0.0 | 0.0 | 0.00 | 0.71 | 0.00 | 81 | 1014.2 |
| 20260510053034 | 67 | 88 | 0.0 | 0.0 | 0.00 | 0.71 | 0.00 | 81 | 1013.8 |
| 20260510051532 | 67 | 88 | 0.0 | 1.0 | 0.00 | 0.71 | 0.00 | 81 | 1014.3 |
| 20260510050028 | 67 | 89 | 0.0 | 1.0 | 0.00 | 0.71 | 0.00 | 81 | 1014.6 |
| 20260510044525 | 67 | 79 | 0.0 | 1.0 | 0.00 | 0.71 | 0.71 | 81 | 1014.6 |
| 20260510043025 | 67 | 79 | 0.0 | 1.0 | 0.01 | 0.71 | 0.71 | 81 | 1014.8 |
| 20260510041529 | 67 | 90 | 0.0 | 2.0 | 0.01 | 0.71 | 0.71 | 81 | 1014.9 |
| 20260510040025 | 67 | 33 | 0.0 | 2.0 | 0.01 | 0.71 | 0.71 | 81 | 1015.1 |
| 20260510034521 | 67 | 328 | 1.0 | 3.0 | 0.01 | 0.72 | 0.71 | 81 | 1015.2 |
| 20260510033021 | 67 | 52 | 0.0 | 1.0 | 0.00 | 0.71 | 0.70 | 81 | 1014.8 |
| 20260510031520 | 68 | 31 | 0.0 | 2.0 | 0.00 | 0.71 | 0.70 | 81 | 1014.6 |
| 20260510030021 | 68 | 18 | 0.0 | 4.0 | 0.00 | 0.71 | 0.70 | 81 | 1014.6 |
| 20260510024518 | 68 | 25 | 0.0 | 1.0 | 0.00 | 0.72 | 0.70 | 81 | 1014.6 |
| 20260510023033 | 68 | 24 | 0.0 | 0.0 | 0.00 | 0.72 | 0.70 | 81 | 1014.6 |
| 20260510021518 | 68 | 25 | 0.0 | 1.0 | 0.00 | 0.72 | 0.70 | 81 | 1014.6 |
| 20260510020016 | 68 | 25 | 0.0 | 1.0 | 0.00 | 0.72 | 0.70 | 81 | 1014.7 |
| 20260510014545 | 68 | 70 | 0.0 | 1.0 | 0.01 | 0.73 | 0.70 | 80 | 1014.6 |
| 20260510013045 | 68 | 20 | 0.0 | 1.0 | 0.01 | 0.73 | 0.70 | 80 | 1014.9 |
| 20260510011521 | 68 | 282 | 0.0 | 1.0 | 0.01 | 0.73 | 0.70 | 80 | 1015.0 |
| 20260510010017 | 68 | 283 | 0.0 | 1.0 | 0.01 | 0.73 | 0.70 | 80 | 1013.9 |
| 20260510004511 | 68 | 281 | 0.0 | 1.0 | 0.00 | 0.72 | 0.69 | 80 | 1014.0 |
| 20260510003012 | 68 | 281 | 0.0 | 0.0 | 0.00 | 0.72 | 0.69 | 80 | 1013.6 |
| 20260510001511 | 68 | 46 | 0.0 | 0.0 | 0.00 | 0.72 | 0.69 | 80 | 1013.5 |
| 20260510000009 | 68 | 46 | 0.0 | 0.0 | 0.01 | 0.72 | 0.69 | 80 | 1013.6 |
| 20260509234507 | 69 | 46 | 0.0 | 1.0 | 0.01 | 0.72 | 0.69 | 80 | 1013.4 |
| 20260509233007 | 69 | 46 | 0.0 | 0.0 | 0.02 | 0.72 | 0.69 | 80 | 1013.6 |
| 20260509231507 | 69 | 46 | 0.0 | 1.0 | 0.02 | 0.72 | 0.69 | 80 | 1013.9 |
| 20260509230007 | 69 | 40 | 0.0 | 0.0 | 0.01 | 0.71 | 0.68 | 79 | 1013.6 |
| 20260509224504 | 69 | 40 | 0.0 | 1.0 | 0.01 | 0.72 | 0.68 | 79 | 1013.6 |
| 20260509223004 | 69 | 40 | 0.0 | 1.0 | 0.00 | 0.71 | 0.67 | 79 | 1013.6 |
| 20260509221503 | 70 | 41 | 0.0 | 2.0 | 0.01 | 0.71 | 0.67 | 79 | 1013.4 |
| 20260509220003 | 70 | 178 | 0.0 | 0.0 | 0.01 | 0.71 | 0.67 | 78 | 1013.2 |
| 20260509214533 | 70 | 178 | 0.0 | 1.0 | 0.01 | 0.71 | 0.67 | 78 | 1013.1 |
| 20260509213032 | 70 | 10 | 0.0 | 6.0 | 0.01 | 0.71 | 0.67 | 78 | 1013.2 |
| 20260509211552 | 70 | 344 | 2.0 | 6.0 | 0.00 | 0.70 | 0.66 | 77 | 1013.0 |
| 20260509210028 | 71 | 330 | 2.0 | 5.0 | 0.00 | 0.70 | 0.66 | 76 | 1012.8 |
| 20260509204527 | 72 | 319 | 0.0 | 5.0 | 0.00 | 0.71 | 0.66 | 75 | 1012.3 |
| 20260509203038 | 72 | 327 | 2.0 | 4.0 | 0.00 | 0.71 | 0.66 | 74 | 1012.1 |
| 20260509201524 | 72 | 358 | 0.0 | 5.0 | 0.00 | 0.71 | 0.66 | 73 | 1011.8 |
| 20260509200026 | 72 | 13 | 3.0 | 6.0 | 0.00 | 0.71 | 0.66 | 74 | 1011.8 |
| 20260509194521 | 71 | 225 | 0.0 | 4.0 | 0.00 | 0.78 | 0.66 | 75 | 1010.9 |
| 20260509193022 | 71 | 193 | 0.0 | 5.0 | 0.00 | 0.78 | 0.66 | 76 | 1010.6 |